ウィーン の空港の天気 - METARとTAF

ウィーン国際空港 ( LOWW / VIE ) - オーストリア ウィーン
飛行場実況気象(Metar)
観測時間09/27 11:50 CEST (09/27 09:50 UTC)
風向・風速北 3m/s
視程10km以上
天気現象弱いしゅう雨
少しの雲 雲底高度 430m
全天の4割程度の雲 雲底高度 550m
少しの雲 雲底高度 550m
全天の8割程度の雲 雲底高度 1280m
気温16℃
湿度94%
気圧1018hPa
METARLOWW 270950Z 36005KT 9999 -SHRA FEW014 SCT018 FEW018CB BKN042 16/15 Q1018 NOSIG
過去の天気等 Google飛行場航空写真 Wunderground天気予報

過去48時間のMETAR

飛行場予報(TAF)
発表時間: 9/27 10:15 CEST (9/27 08:15 UTC)
予報対象時間: 27日11時 CEST ~ 28日17時 CEST
風向・風速北西 5m/s
視程10km以上
少しの雲 雲底高度 460m
全天の8割程度の雲 雲底高度 910m
27日11時 CEST ~ 27日19時 CEST に一時的に
天気現象弱いしゅう雨
TAF LOWW 270815Z 2709/2815 32010KT 9999 FEW015 BKN030 TX22/2813Z TN15/2804Z
TEMPO 2709/2717 -SHRA